createdAt,value
2023-05-15T00:00:20.262Z,12.01
2023-05-15T00:02:23.714Z,11.97
2023-05-15T00:04:27.193Z,11.94
2023-05-15T00:06:30.580Z,11.88
2023-05-15T00:08:34.003Z,11.84
2023-05-15T00:10:38.312Z,11.81
2023-05-15T00:12:42.824Z,11.77
2023-05-15T00:14:46.189Z,11.74
2023-05-15T00:16:50.999Z,11.72
2023-05-15T00:18:54.428Z,11.68
2023-05-15T00:20:57.752Z,11.66
2023-05-15T00:23:01.087Z,11.63
2023-05-15T00:25:04.662Z,11.59
2023-05-15T00:27:08.081Z,11.56
2023-05-15T00:29:13.536Z,11.53
2023-05-15T00:31:16.979Z,11.49
2023-05-15T00:33:21.774Z,11.46
2023-05-15T00:35:25.595Z,11.43
2023-05-15T00:37:29.160Z,11.39
2023-05-15T00:39:32.558Z,11.35
2023-05-15T00:41:37.898Z,11.32
2023-05-15T00:43:42.496Z,11.29
2023-05-15T00:45:47.395Z,11.26
2023-05-15T00:47:51.678Z,11.25
2023-05-15T00:49:58.096Z,11.22
2023-05-15T00:52:03.873Z,11.21
2023-05-15T00:54:08.380Z,11.18
2023-05-15T00:56:13.450Z,11.16
2023-05-15T00:58:18.320Z,11.14
2023-05-15T01:00:22.124Z,11.12
2023-05-15T01:02:25.573Z,11.08
2023-05-15T01:04:29.395Z,11.07
2023-05-15T01:06:34.480Z,11.05
2023-05-15T01:08:43.609Z,11.02
2023-05-15T01:10:49.653Z,11.00
2023-05-15T01:12:55.341Z,10.97
2023-05-15T01:14:58.876Z,10.94
2023-05-15T01:17:02.347Z,10.90
2023-05-15T01:19:06.177Z,10.87
2023-05-15T01:21:41.740Z,10.84
2023-05-15T01:23:59.843Z,10.81
2023-05-15T01:26:42.793Z,10.79
2023-05-15T01:28:53.219Z,10.77
2023-05-15T01:30:58.867Z,10.74
2023-05-15T01:33:09.535Z,10.72
2023-05-15T01:35:17.881Z,10.68
2023-05-15T01:37:25.918Z,10.66
2023-05-15T01:39:30.269Z,10.63
2023-05-15T01:41:42.524Z,10.60
2023-05-15T01:43:52.101Z,10.59
2023-05-15T01:45:57.264Z,10.57
2023-05-15T01:48:01.782Z,10.53
2023-05-15T01:50:07.605Z,10.51
2023-05-15T01:52:15.888Z,10.48
2023-05-15T01:54:20.727Z,10.46
2023-05-15T01:56:25.667Z,10.46
2023-05-15T01:58:30.110Z,10.45
2023-05-15T02:00:35.729Z,10.43
2023-05-15T02:02:39.639Z,10.41
2023-05-15T02:04:46.034Z,10.39
2023-05-15T02:06:50.756Z,10.38
2023-05-15T02:08:55.018Z,10.37
2023-05-15T02:11:00.809Z,10.33
2023-05-15T02:13:04.193Z,10.32
2023-05-15T02:15:10.362Z,10.29
2023-05-15T02:17:15.315Z,10.27
2023-05-15T02:19:18.681Z,10.24
2023-05-15T02:21:22.089Z,10.20
2023-05-15T02:23:25.417Z,10.19
2023-05-15T02:25:39.837Z,10.16
2023-05-15T02:27:49.573Z,10.15
2023-05-15T02:30:05.340Z,10.13
2023-05-15T02:32:19.981Z,10.10
2023-05-15T02:34:29.592Z,10.08
2023-05-15T02:36:37.475Z,10.06
2023-05-15T02:38:46.452Z,10.04
2023-05-15T02:40:51.401Z,10.02
2023-05-15T02:42:56.199Z,10.01
2023-05-15T02:44:59.830Z,9.99
2023-05-15T02:47:03.708Z,9.97
2023-05-15T02:49:09.256Z,9.96
2023-05-15T02:51:16.457Z,9.93
2023-05-15T02:53:19.867Z,9.89
2023-05-15T02:55:23.539Z,9.86
2023-05-15T02:57:27.283Z,9.83
2023-05-15T02:59:30.722Z,9.80
2023-05-15T03:01:34.084Z,9.79
2023-05-15T03:03:37.617Z,9.75
2023-05-15T03:05:42.770Z,9.73
2023-05-15T03:07:46.133Z,9.71
2023-05-15T03:09:49.804Z,9.70
2023-05-15T03:11:53.135Z,9.67
2023-05-15T03:13:56.581Z,9.65
2023-05-15T03:15:59.997Z,9.64
2023-05-15T03:18:03.445Z,9.62
2023-05-15T03:20:08.221Z,9.61
2023-05-15T03:22:12.968Z,9.59
2023-05-15T03:24:19.128Z,9.57
2023-05-15T03:26:22.503Z,9.56
2023-05-15T03:28:25.808Z,9.54
2023-05-15T03:30:29.329Z,9.52
2023-05-15T03:32:32.782Z,9.49
2023-05-15T03:34:37.107Z,9.48
2023-05-15T03:36:40.576Z,9.47
2023-05-15T03:38:45.373Z,9.47
2023-05-15T03:40:50.859Z,9.47
2023-05-15T03:42:54.553Z,9.46
2023-05-15T03:44:57.885Z,9.45
2023-05-15T03:47:01.353Z,9.46
2023-05-15T03:49:04.753Z,9.44
2023-05-15T03:51:10.884Z,9.44
2023-05-15T03:53:14.307Z,9.43
2023-05-15T03:55:19.349Z,9.42
2023-05-15T03:57:22.808Z,9.42
2023-05-15T03:59:26.137Z,9.41
2023-05-15T04:01:29.578Z,9.41
2023-05-15T04:03:32.950Z,9.42
2023-05-15T04:05:36.420Z,9.43
2023-05-15T04:07:40.096Z,9.44
2023-05-15T04:09:43.494Z,9.46
2023-05-15T04:11:48.202Z,9.48
2023-05-15T04:13:51.492Z,9.49
2023-05-15T04:15:55.272Z,9.51
2023-05-15T04:17:58.742Z,9.53
2023-05-15T04:20:02.153Z,9.56
2023-05-15T04:22:06.463Z,9.58
2023-05-15T04:24:09.930Z,9.62
2023-05-15T04:26:13.260Z,9.66
2023-05-15T04:28:19.855Z,9.68
2023-05-15T04:30:23.241Z,9.70
2023-05-15T04:32:27.734Z,9.75
2023-05-15T04:34:31.325Z,9.78
2023-05-15T04:36:35.057Z,9.81
2023-05-15T04:38:38.489Z,9.86
2023-05-15T04:40:41.791Z,9.91
2023-05-15T04:42:45.167Z,9.95
2023-05-15T04:44:49.972Z,10.00
2023-05-15T04:46:53.319Z,10.05
2023-05-15T04:48:56.671Z,10.11
2023-05-15T04:51:00.107Z,10.16
2023-05-15T04:53:03.754Z,10.22
2023-05-15T04:55:08.303Z,10.29
2023-05-15T04:57:11.631Z,10.34
2023-05-15T04:59:15.991Z,10.41
2023-05-15T05:01:20.747Z,10.48
2023-05-15T05:03:24.277Z,10.57
2023-05-15T05:05:27.662Z,10.63
2023-05-15T05:07:30.970Z,10.71
2023-05-15T05:09:34.396Z,10.78
2023-05-15T05:11:39.274Z,10.86
2023-05-15T05:13:42.660Z,10.92
2023-05-15T05:15:46.300Z,11.00
2023-05-15T05:17:51.499Z,11.07
2023-05-15T05:19:54.784Z,11.15
2023-05-15T05:22:01.445Z,11.23
2023-05-15T05:24:05.017Z,11.32
2023-05-15T05:26:08.423Z,11.41
2023-05-15T05:28:11.770Z,11.49
2023-05-15T05:30:15.535Z,11.57
2023-05-15T05:32:18.887Z,11.66
2023-05-15T05:34:23.891Z,11.75
2023-05-15T05:36:27.182Z,11.83
2023-05-15T05:38:30.488Z,11.95
2023-05-15T05:40:33.851Z,12.04
2023-05-15T05:42:37.169Z,12.14
2023-05-15T05:44:40.458Z,12.23
2023-05-15T05:46:45.338Z,12.33
2023-05-15T05:48:48.714Z,12.43
2023-05-15T05:50:53.559Z,12.51
2023-05-15T05:52:56.878Z,12.61
2023-05-15T05:55:00.283Z,12.68
2023-05-15T05:57:03.644Z,12.76
2023-05-15T05:59:07.183Z,12.84
2023-05-15T06:01:10.613Z,12.94
2023-05-15T06:03:14.120Z,13.04
2023-05-15T06:05:17.627Z,13.14
2023-05-15T06:07:25.897Z,13.25
2023-05-15T06:09:29.445Z,13.35
2023-05-15T06:11:33.913Z,13.43
2023-05-15T06:13:37.732Z,13.52
2023-05-15T06:15:41.186Z,13.62
2023-05-15T06:17:44.652Z,13.72
2023-05-15T06:19:48.037Z,13.82
2023-05-15T06:21:51.388Z,13.92
2023-05-15T06:23:56.876Z,14.02
2023-05-15T06:26:01.789Z,14.12
2023-05-15T06:28:05.558Z,14.24
2023-05-15T06:30:10.084Z,14.34
2023-05-15T06:32:13.394Z,14.45
2023-05-15T06:34:16.768Z,14.56
2023-05-15T06:36:20.130Z,14.67
2023-05-15T06:38:23.738Z,14.76
2023-05-15T06:40:28.649Z,14.88
2023-05-15T06:42:32.318Z,14.98
2023-05-15T06:44:35.951Z,15.07
2023-05-15T06:46:39.475Z,15.18
2023-05-15T06:48:43.045Z,15.27
2023-05-15T06:50:46.454Z,15.36
2023-05-15T06:52:49.795Z,15.43
2023-05-15T06:54:53.201Z,15.51
2023-05-15T06:56:57.914Z,15.59
2023-05-15T06:59:01.382Z,15.67
2023-05-15T07:01:06.508Z,15.76
2023-05-15T07:03:10.082Z,15.86
2023-05-15T07:05:13.467Z,15.95
2023-05-15T07:07:16.901Z,16.05
2023-05-15T07:09:20.391Z,16.15
2023-05-15T07:11:23.649Z,16.22
2023-05-15T07:13:28.598Z,16.32
2023-05-15T07:15:31.995Z,16.41
2023-05-15T07:17:35.615Z,16.51
2023-05-15T07:19:39.043Z,16.59
2023-05-15T07:21:42.471Z,16.70
2023-05-15T07:23:45.864Z,16.82
2023-05-15T07:25:49.952Z,16.92
2023-05-15T07:27:53.467Z,17.03
2023-05-15T07:29:58.221Z,17.12
2023-05-15T07:32:03.994Z,17.21
2023-05-15T07:34:07.508Z,17.29
2023-05-15T07:36:11.009Z,17.39
2023-05-15T07:38:14.485Z,17.50
2023-05-15T07:40:18.039Z,17.57
2023-05-15T07:42:21.367Z,17.65
2023-05-15T07:44:24.678Z,17.72
2023-05-15T07:46:30.254Z,17.81
2023-05-15T07:48:33.743Z,17.91
2023-05-15T07:50:37.106Z,17.99
2023-05-15T07:52:40.631Z,18.07
2023-05-15T07:54:44.132Z,18.15
2023-05-15T07:56:47.773Z,18.24
2023-05-15T07:58:51.398Z,18.32
2023-05-15T08:00:54.937Z,18.38
2023-05-15T08:03:00.805Z,18.47
2023-05-15T08:05:04.588Z,18.55
2023-05-15T08:07:08.467Z,18.64
2023-05-15T08:09:12.871Z,18.77
2023-05-15T08:11:16.349Z,18.85
2023-05-15T08:13:19.769Z,18.90
2023-05-15T08:15:23.915Z,18.96
2023-05-15T08:17:27.537Z,19.01
2023-05-15T08:19:32.336Z,19.07
2023-05-15T08:21:35.714Z,19.13
2023-05-15T08:23:39.077Z,19.19
2023-05-15T08:25:42.802Z,19.24
2023-05-15T08:27:46.289Z,19.32
2023-05-15T08:29:49.656Z,19.39
2023-05-15T08:31:53.418Z,19.45
2023-05-15T08:33:56.771Z,19.51
2023-05-15T08:36:01.627Z,19.57
2023-05-15T08:38:05.070Z,19.65
2023-05-15T08:40:09.547Z,19.74
2023-05-15T08:42:21.287Z,19.80
2023-05-15T08:44:25.277Z,19.82
2023-05-15T08:46:29.700Z,19.88
2023-05-15T08:48:37.982Z,19.95
2023-05-15T08:50:43.617Z,20.03
2023-05-15T08:52:49.071Z,20.09
2023-05-15T08:54:53.028Z,20.14
2023-05-15T08:56:56.548Z,20.23
2023-05-15T08:59:00.389Z,20.29
2023-05-15T09:01:04.653Z,20.35
2023-05-15T09:03:08.293Z,20.39
2023-05-15T09:05:12.156Z,20.42
2023-05-15T09:07:16.394Z,20.44
2023-05-15T09:09:21.963Z,20.51
2023-05-15T09:11:25.802Z,20.56
2023-05-15T09:13:29.253Z,20.65
2023-05-15T09:15:33.957Z,20.74
2023-05-15T09:17:37.371Z,20.84
2023-05-15T09:19:41.283Z,20.91
2023-05-15T09:21:44.652Z,20.93
2023-05-15T09:23:48.439Z,20.95
2023-05-15T09:25:57.171Z,20.97
2023-05-15T09:28:03.821Z,20.94
2023-05-15T09:30:14.705Z,20.98
2023-05-15T09:32:19.956Z,21.01
2023-05-15T09:34:30.688Z,21.09
2023-05-15T09:36:34.155Z,21.17
2023-05-15T09:38:43.389Z,21.24
2023-05-15T09:40:47.214Z,21.31
2023-05-15T09:42:54.448Z,21.38
2023-05-15T09:44:57.950Z,21.41
2023-05-15T09:47:02.249Z,21.44
2023-05-15T09:49:07.214Z,21.48
2023-05-15T09:51:16.903Z,21.53
2023-05-15T09:53:21.394Z,21.58
2023-05-15T09:55:25.458Z,21.58
2023-05-15T09:57:30.450Z,21.61
2023-05-15T09:59:35.709Z,21.67
2023-05-15T10:01:39.251Z,21.75
2023-05-15T10:03:43.911Z,21.84
2023-05-15T10:05:48.001Z,21.94
2023-05-15T10:07:55.849Z,22.06
2023-05-15T10:09:59.723Z,22.15
2023-05-15T10:12:04.382Z,22.24
2023-05-15T10:14:11.906Z,22.26
2023-05-15T10:16:17.379Z,22.29
2023-05-15T10:18:25.082Z,22.30
2023-05-15T10:20:28.662Z,22.32
2023-05-15T10:22:33.645Z,22.37
2023-05-15T10:24:39.723Z,22.40
2023-05-15T10:26:44.336Z,22.45
2023-05-15T10:28:47.889Z,22.49
2023-05-15T10:30:52.006Z,22.54
2023-05-15T10:32:57.165Z,22.53
2023-05-15T10:35:01.329Z,22.52
2023-05-15T10:37:06.266Z,22.56
2023-05-15T10:39:09.840Z,22.62
2023-05-15T10:41:17.334Z,22.63
2023-05-15T10:43:22.320Z,22.66
2023-05-15T10:45:26.525Z,22.69
2023-05-15T10:47:31.319Z,22.75
2023-05-15T10:49:36.450Z,22.81
2023-05-15T10:51:40.846Z,22.91
2023-05-15T10:53:44.824Z,23.00
2023-05-15T10:55:50.020Z,23.06
2023-05-15T10:57:55.020Z,23.13
2023-05-15T10:59:58.662Z,23.23
2023-05-15T11:02:23.583Z,23.34
2023-05-15T11:04:27.660Z,23.47
2023-05-15T11:06:32.473Z,23.63
2023-05-15T11:08:36.648Z,23.78
2023-05-15T11:10:40.509Z,23.87
2023-05-15T11:13:00.028Z,23.87
2023-05-15T11:15:22.296Z,23.85
2023-05-15T11:17:25.860Z,23.87
2023-05-15T11:19:36.006Z,23.94
2023-05-15T11:21:47.921Z,23.95
2023-05-15T11:24:05.636Z,23.92
2023-05-15T11:26:09.139Z,23.90
2023-05-15T11:28:23.210Z,23.92
2023-05-15T11:30:37.369Z,23.91
2023-05-15T11:33:02.125Z,23.87
2023-05-15T11:35:05.794Z,23.75
2023-05-15T11:37:19.364Z,23.56
2023-05-15T11:39:25.323Z,23.40
2023-05-15T11:41:33.238Z,23.22
2023-05-15T11:43:37.611Z,23.07
2023-05-15T11:45:41.957Z,22.92
2023-05-15T11:47:45.536Z,22.79
2023-05-15T11:49:49.722Z,22.66
2023-05-15T11:51:56.279Z,22.53
2023-05-15T11:54:03.311Z,22.43
2023-05-15T11:56:07.245Z,22.40
2023-05-15T11:58:15.089Z,22.50
2023-05-15T12:00:19.188Z,22.64
2023-05-15T12:02:22.746Z,22.68
2023-05-15T12:04:26.279Z,22.64
2023-05-15T12:06:29.847Z,22.57
2023-05-15T12:08:34.380Z,22.47
2023-05-15T12:10:43.787Z,22.38
2023-05-15T12:12:48.150Z,22.28
2023-05-15T12:14:51.566Z,22.22
2023-05-15T12:16:57.837Z,22.17
2023-05-15T12:19:01.391Z,22.13
2023-05-15T12:21:06.082Z,22.09
2023-05-15T12:23:09.740Z,22.04
2023-05-15T12:25:14.365Z,21.96
2023-05-15T12:27:19.718Z,21.89
2023-05-15T12:29:23.126Z,21.87
2023-05-15T12:31:26.631Z,21.84
2023-05-15T12:33:30.029Z,21.78
2023-05-15T12:35:35.686Z,21.71
2023-05-15T12:37:39.820Z,21.64
2023-05-15T12:39:52.969Z,21.55
2023-05-15T12:41:59.343Z,21.49
2023-05-15T12:44:04.087Z,21.46
2023-05-15T12:46:07.460Z,21.50
2023-05-15T12:48:15.691Z,21.55
2023-05-15T12:50:19.945Z,21.53
2023-05-15T12:52:23.370Z,21.47
2023-05-15T12:54:26.906Z,21.37
2023-05-15T12:56:31.205Z,21.23
2023-05-15T12:58:35.092Z,21.12
2023-05-15T13:00:41.960Z,20.99
2023-05-15T13:02:46.277Z,20.89
2023-05-15T13:04:49.806Z,20.81
2023-05-15T13:06:54.133Z,20.74
2023-05-15T13:08:57.462Z,20.67
2023-05-15T13:11:01.658Z,20.62
2023-05-15T13:13:05.083Z,20.59
2023-05-15T13:15:09.515Z,20.57
2023-05-15T13:17:16.153Z,20.58
2023-05-15T13:19:19.622Z,20.57
2023-05-15T13:21:23.038Z,20.53
2023-05-15T13:23:26.302Z,20.52
2023-05-15T13:25:31.895Z,20.51
2023-05-15T13:27:35.556Z,20.50
2023-05-15T13:29:38.893Z,20.49
2023-05-15T13:31:42.289Z,20.47
2023-05-15T13:33:47.081Z,20.47
2023-05-15T13:35:50.386Z,20.48
2023-05-15T13:37:53.721Z,20.47
2023-05-15T13:39:57.006Z,20.48
2023-05-15T13:42:00.849Z,20.47
2023-05-15T13:44:04.214Z,20.43
2023-05-15T13:46:07.511Z,20.40
2023-05-15T13:48:10.915Z,20.38
2023-05-15T13:50:16.967Z,20.35
2023-05-15T13:52:20.404Z,20.34
2023-05-15T13:54:23.751Z,20.33
2023-05-15T13:56:27.069Z,20.29
2023-05-15T13:58:30.651Z,20.27
2023-05-15T14:00:34.078Z,20.27
2023-05-15T14:02:37.578Z,20.24
2023-05-15T14:04:41.061Z,20.23
2023-05-15T14:06:46.139Z,20.24
2023-05-15T14:08:49.417Z,20.24
2023-05-15T14:10:52.740Z,20.22
2023-05-15T14:12:56.175Z,20.19
2023-05-15T14:14:59.860Z,20.16
2023-05-15T14:17:03.234Z,20.13
2023-05-15T14:19:06.756Z,20.07
2023-05-15T14:21:10.187Z,20.01
2023-05-15T14:23:15.575Z,19.95
2023-05-15T14:25:18.936Z,19.93
2023-05-15T14:27:22.354Z,19.93
2023-05-15T14:29:25.887Z,19.92
2023-05-15T14:31:29.189Z,19.87
2023-05-15T14:33:32.513Z,19.82
2023-05-15T14:35:35.843Z,19.76
2023-05-15T14:37:39.141Z,19.73
2023-05-15T14:39:44.026Z,19.66
2023-05-15T14:41:47.492Z,19.60
2023-05-15T14:43:50.785Z,19.54
2023-05-15T14:45:54.174Z,19.49
2023-05-15T14:47:57.548Z,19.43
2023-05-15T14:50:00.914Z,19.41
2023-05-15T14:52:04.989Z,19.44
2023-05-15T14:54:08.453Z,19.54
2023-05-15T14:56:13.719Z,19.70
2023-05-15T14:58:17.277Z,19.89
2023-05-15T15:00:20.778Z,20.05
2023-05-15T15:02:24.195Z,20.14
2023-05-15T15:04:29.179Z,20.39
2023-05-15T15:06:32.561Z,20.86
2023-05-15T15:08:35.887Z,21.34
2023-05-15T15:10:40.841Z,21.54
2023-05-15T15:12:46.535Z,21.49
2023-05-15T15:14:49.840Z,21.36
2023-05-15T15:16:53.209Z,21.21
2023-05-15T15:18:56.599Z,21.07
2023-05-15T15:20:59.931Z,20.95
2023-05-15T15:23:04.507Z,20.81
2023-05-15T15:25:08.438Z,20.62
2023-05-15T15:27:11.790Z,20.45
2023-05-15T15:29:16.511Z,20.32
2023-05-15T15:31:21.045Z,20.23
2023-05-15T15:33:24.528Z,20.10
2023-05-15T15:35:27.979Z,19.94
2023-05-15T15:37:32.571Z,19.83
2023-05-15T15:39:35.859Z,19.71
2023-05-15T15:41:39.913Z,19.58
2023-05-15T15:43:43.309Z,19.42
2023-05-15T15:45:48.001Z,19.27
2023-05-15T15:47:51.427Z,19.20
2023-05-15T15:49:54.898Z,19.13
2023-05-15T15:51:58.272Z,19.02
2023-05-15T15:54:01.600Z,18.88
2023-05-15T15:56:06.294Z,18.74
2023-05-15T15:58:09.643Z,18.66
2023-05-15T16:00:13.999Z,18.61
2023-05-15T16:02:19.062Z,18.61
2023-05-15T16:04:22.934Z,18.60
2023-05-15T16:06:26.240Z,18.57
2023-05-15T16:08:29.569Z,18.54
2023-05-15T16:10:33.019Z,18.47
2023-05-15T16:12:36.556Z,18.39
2023-05-15T16:14:39.898Z,18.33
2023-05-15T16:16:43.199Z,18.26
2023-05-15T16:18:47.997Z,18.18
2023-05-15T16:20:51.337Z,18.11
2023-05-15T16:22:54.665Z,18.06
2023-05-15T16:24:57.976Z,17.99
2023-05-15T16:27:01.268Z,17.90
2023-05-15T16:29:04.692Z,17.83
2023-05-15T16:31:08.170Z,17.79
2023-05-15T16:33:11.715Z,17.75
2023-05-15T16:35:16.490Z,17.74
2023-05-15T16:37:19.853Z,17.75
2023-05-15T16:39:23.409Z,17.79
2023-05-15T16:41:26.911Z,17.86
2023-05-15T16:43:30.238Z,17.92
2023-05-15T16:45:33.540Z,17.95
2023-05-15T16:47:38.911Z,17.96
2023-05-15T16:49:44.261Z,17.95
2023-05-15T16:51:49.632Z,17.92
2023-05-15T16:53:53.931Z,17.92
2023-05-15T16:55:57.285Z,17.95
2023-05-15T16:58:00.824Z,17.97
2023-05-15T17:00:04.714Z,17.97
2023-05-15T17:02:10.039Z,17.94
2023-05-15T17:04:13.535Z,17.90
2023-05-15T17:06:17.229Z,17.88
2023-05-15T17:08:21.925Z,17.83
2023-05-15T17:10:25.824Z,17.79
2023-05-15T17:12:29.302Z,17.75
2023-05-15T17:14:32.569Z,17.72
2023-05-15T17:16:36.237Z,17.66
2023-05-15T17:18:40.385Z,17.62
2023-05-15T17:20:43.780Z,17.54
2023-05-15T17:22:47.032Z,17.48
2023-05-15T17:24:52.944Z,17.39
2023-05-15T17:26:56.385Z,17.30
2023-05-15T17:28:59.661Z,17.21
2023-05-15T17:31:10.472Z,17.12
2023-05-15T17:33:13.777Z,17.04
2023-05-15T17:35:17.081Z,16.96
2023-05-15T17:37:20.433Z,16.86
2023-05-15T17:39:23.739Z,16.76
2023-05-15T17:41:28.464Z,16.65
2023-05-15T17:43:31.880Z,16.55
2023-05-15T17:45:35.192Z,16.47
2023-05-15T17:47:38.521Z,16.40
2023-05-15T17:49:42.096Z,16.34
2023-05-15T17:51:45.405Z,16.27
2023-05-15T17:53:49.049Z,16.19
2023-05-15T17:55:52.402Z,16.09
2023-05-15T17:57:57.032Z,16.00
2023-05-15T18:00:00.282Z,15.90
2023-05-15T18:02:03.791Z,15.78
2023-05-15T18:04:07.448Z,15.66
2023-05-15T18:06:13.498Z,15.51
2023-05-15T18:08:16.824Z,15.34
2023-05-15T18:10:20.202Z,15.17
2023-05-15T18:12:25.068Z,15.01
2023-05-15T18:14:30.607Z,14.85
2023-05-15T18:16:34.237Z,14.72
2023-05-15T18:18:37.855Z,14.58
2023-05-15T18:20:41.836Z,14.45
2023-05-15T18:22:46.184Z,14.33
2023-05-15T18:24:49.585Z,14.21
2023-05-15T18:26:53.039Z,14.10
2023-05-15T18:28:56.528Z,14.01
2023-05-15T18:31:01.331Z,13.90
2023-05-15T18:33:04.888Z,13.78
2023-05-15T18:35:08.928Z,13.66
2023-05-15T18:37:12.199Z,13.56
2023-05-15T18:39:15.940Z,13.46
2023-05-15T18:41:19.201Z,13.35
2023-05-15T18:43:22.772Z,13.23
2023-05-15T18:45:28.710Z,13.11
2023-05-15T18:47:33.508Z,13.00
2023-05-15T18:49:36.907Z,12.87
2023-05-15T18:51:40.211Z,12.74
2023-05-15T18:53:43.763Z,12.63
2023-05-15T18:55:47.220Z,12.51
2023-05-15T18:57:50.516Z,12.41
2023-05-15T18:59:54.927Z,12.33
2023-05-15T19:01:58.314Z,12.26
2023-05-15T19:04:03.967Z,12.17
2023-05-15T19:06:07.500Z,12.12
2023-05-15T19:08:10.856Z,12.06
2023-05-15T19:10:14.353Z,12.03
2023-05-15T19:12:17.732Z,12.01
2023-05-15T19:14:21.142Z,11.97
2023-05-15T19:16:26.981Z,11.93
2023-05-15T19:18:30.437Z,11.88
2023-05-15T19:20:35.502Z,11.83
2023-05-15T19:22:38.887Z,11.78
2023-05-15T19:24:42.381Z,11.74
2023-05-15T19:26:45.710Z,11.71
2023-05-15T19:28:48.975Z,11.67
2023-05-15T19:30:52.260Z,11.66
2023-05-15T19:32:55.775Z,11.64
2023-05-15T19:34:59.109Z,11.59
2023-05-15T19:37:03.801Z,11.56
2023-05-15T19:39:07.109Z,11.52
2023-05-15T19:41:11.096Z,11.49
2023-05-15T19:43:15.254Z,11.45
2023-05-15T19:45:18.632Z,11.42
2023-05-15T19:47:22.024Z,11.35
2023-05-15T19:49:25.355Z,11.31
2023-05-15T19:51:28.686Z,11.27
2023-05-15T19:53:33.403Z,11.19
2023-05-15T19:55:36.719Z,11.16
2023-05-15T19:57:44.916Z,11.12
2023-05-15T19:59:48.423Z,11.06
2023-05-15T20:01:51.767Z,11.04
2023-05-15T20:03:55.366Z,11.01
2023-05-15T20:05:58.999Z,10.98
2023-05-15T20:08:02.384Z,10.95
2023-05-15T20:10:09.203Z,10.93
2023-05-15T20:12:12.520Z,10.89
2023-05-15T20:14:16.167Z,10.86
2023-05-15T20:16:19.506Z,10.84
2023-05-15T20:18:23.658Z,10.81
2023-05-15T20:20:27.249Z,10.77
2023-05-15T20:22:31.521Z,10.74
2023-05-15T20:24:34.844Z,10.71
2023-05-15T20:26:39.584Z,10.68
2023-05-15T20:28:45.165Z,10.67
2023-05-15T20:30:49.195Z,10.66
2023-05-15T20:32:52.684Z,10.66
2023-05-15T20:34:56.296Z,10.64
2023-05-15T20:36:59.698Z,10.62
2023-05-15T20:39:07.216Z,10.59
2023-05-15T20:41:10.711Z,10.57
2023-05-15T20:43:15.462Z,10.53
2023-05-15T20:45:19.139Z,10.51
2023-05-15T20:47:22.539Z,10.50
2023-05-15T20:49:25.850Z,10.50
2023-05-15T20:51:29.092Z,10.50
2023-05-15T20:53:32.425Z,10.48
2023-05-15T20:55:36.145Z,10.47
2023-05-15T20:57:41.603Z,10.46
2023-05-15T20:59:49.092Z,10.44
2023-05-15T21:01:52.634Z,10.42
2023-05-15T21:03:56.091Z,10.39
2023-05-15T21:05:59.603Z,10.36
2023-05-15T21:08:03.386Z,10.33
2023-05-15T21:10:07.744Z,10.32
2023-05-15T21:12:12.341Z,10.33
2023-05-15T21:14:15.911Z,10.32
2023-05-15T21:16:20.690Z,10.33
2023-05-15T21:18:24.028Z,10.32
2023-05-15T21:20:27.666Z,10.30
2023-05-15T21:22:31.301Z,10.28
2023-05-15T21:24:34.597Z,10.29
2023-05-15T21:26:37.910Z,10.30
2023-05-15T21:28:41.414Z,10.31
2023-05-15T21:30:45.012Z,10.32
2023-05-15T21:32:49.968Z,10.32
2023-05-15T21:34:53.465Z,10.30
2023-05-15T21:36:57.088Z,10.30
2023-05-15T21:39:00.502Z,10.31
2023-05-15T21:41:03.891Z,10.31
2023-05-15T21:43:07.299Z,10.30
2023-05-15T21:45:11.210Z,10.28
2023-05-15T21:47:14.638Z,10.25
2023-05-15T21:49:19.701Z,10.22
2023-05-15T21:51:23.601Z,10.19
2023-05-15T21:53:27.140Z,10.15
2023-05-15T21:55:30.892Z,10.11
2023-05-15T21:57:34.307Z,10.08
2023-05-15T21:59:38.182Z,10.05
2023-05-15T22:01:42.449Z,10.04
2023-05-15T22:03:46.293Z,10.05
2023-05-15T22:05:53.001Z,10.03
2023-05-15T22:07:57.218Z,10.03
2023-05-15T22:10:03.156Z,10.02
2023-05-15T22:12:07.996Z,10.00
2023-05-15T22:14:11.586Z,9.99
2023-05-15T22:16:15.135Z,9.97
2023-05-15T22:18:18.547Z,9.96
2023-05-15T22:20:22.381Z,9.95
2023-05-15T22:22:27.204Z,9.94
2023-05-15T22:24:30.543Z,9.92
2023-05-15T22:26:34.477Z,9.91
2023-05-15T22:28:37.784Z,9.88
2023-05-15T22:30:41.233Z,9.86
2023-05-15T22:32:45.368Z,9.83
2023-05-15T22:34:48.743Z,9.81
2023-05-15T22:38:56.919Z,9.80
2023-05-15T22:41:00.336Z,9.78
2023-05-15T22:43:03.952Z,9.78
2023-05-15T22:45:08.434Z,9.78
2023-05-15T22:47:12.079Z,9.79
2023-05-15T22:49:19.320Z,9.80
2023-05-15T22:51:23.640Z,9.81
2023-05-15T22:53:27.299Z,9.81
2023-05-15T22:55:32.152Z,9.81
2023-05-15T22:57:35.751Z,9.81
2023-05-15T22:59:39.129Z,9.79
2023-05-15T23:01:43.204Z,9.79
2023-05-15T23:03:46.664Z,9.80
2023-05-15T23:05:50.375Z,9.81
2023-05-15T23:07:54.185Z,9.81
2023-05-15T23:09:57.533Z,9.84
2023-05-15T23:12:02.342Z,9.85
2023-05-15T23:14:05.842Z,9.87
2023-05-15T23:16:09.914Z,9.87
2023-05-15T23:18:13.471Z,9.88
2023-05-15T23:20:17.043Z,9.86
2023-05-15T23:22:20.265Z,9.87
2023-05-15T23:24:23.548Z,9.87
2023-05-15T23:26:27.129Z,9.87
2023-05-15T23:28:31.751Z,9.88
2023-05-15T23:30:35.031Z,9.88
2023-05-15T23:32:38.286Z,9.88
2023-05-15T23:34:41.565Z,9.86
2023-05-15T23:36:44.775Z,9.88
2023-05-15T23:38:47.977Z,9.89
2023-05-15T23:40:52.637Z,9.90
2023-05-15T23:42:56.813Z,9.93
2023-05-15T23:45:01.649Z,9.94
2023-05-15T23:47:05.728Z,9.94
2023-05-15T23:49:09.405Z,9.95
2023-05-15T23:51:12.605Z,9.95
2023-05-15T23:53:15.799Z,9.98
2023-05-15T23:55:19.036Z,9.97
2023-05-15T23:57:22.291Z,9.98
2023-05-15T23:59:25.599Z,9.99
